Terminal Aerodrome Forecast
Issued by NWS

Home | Current Version | Previous Version | Text Only | Print | Product List | Glossary On
Versions: 1 2 3 4 5 6 7 8 9 10 11 12 13 14 15 16 17 18 19
000
FTUS42 KFFC 272332
TAFRYY
TAF
KRYY 272332Z 2800/2824 12008KT P6SM SCT060
     FM280100 09004KT P6SM FEW080
     FM281400 12005KT P6SM BKN050
     FM282100 05007KT P6SM SCT250
      AMD NOT SKED 2804/2812=

USA.gov is the U.S. government's official web portal to all federal, state and local government web resources and services.